sensor_id;sensor_type;location;lat;lon;timestamp;P1;durP1;ratioP1;P2;durP2;ratioP2
73954;SDS011;62306;52.516;13.290;2023-03-21T00:01:40;20.70;;;13.23;;
73954;SDS011;62306;52.516;13.290;2023-03-21T00:04:07;21.05;;;13.60;;
73954;SDS011;62306;52.516;13.290;2023-03-21T00:06:34;19.35;;;12.88;;
73954;SDS011;62306;52.516;13.290;2023-03-21T00:09:02;22.25;;;13.77;;
73954;SDS011;62306;52.516;13.290;2023-03-21T00:11:29;20.55;;;14.05;;
73954;SDS011;62306;52.516;13.290;2023-03-21T00:13:56;18.13;;;14.10;;
73954;SDS011;62306;52.516;13.290;2023-03-21T00:16:27;19.85;;;14.98;;
73954;SDS011;62306;52.516;13.290;2023-03-21T00:18:55;20.10;;;13.55;;
73954;SDS011;62306;52.516;13.290;2023-03-21T00:21:23;19.13;;;13.90;;
73954;SDS011;62306;52.516;13.290;2023-03-21T00:23:52;22.65;;;13.50;;
73954;SDS011;62306;52.516;13.290;2023-03-21T00:26:19;23.95;;;14.00;;
73954;SDS011;62306;52.516;13.290;2023-03-21T00:28:47;20.00;;;13.25;;
73954;SDS011;62306;52.516;13.290;2023-03-21T00:31:15;21.20;;;13.55;;
73954;SDS011;62306;52.516;13.290;2023-03-21T00:33:43;22.48;;;13.88;;
73954;SDS011;62306;52.516;13.290;2023-03-21T00:36:10;19.92;;;14.77;;
73954;SDS011;62306;52.516;13.290;2023-03-21T00:38:38;24.20;;;15.05;;
73954;SDS011;62306;52.516;13.290;2023-03-21T00:41:05;22.75;;;15.57;;
73954;SDS011;62306;52.516;13.290;2023-03-21T00:43:33;20.35;;;15.50;;
73954;SDS011;62306;52.516;13.290;2023-03-21T00:46:00;21.13;;;14.55;;
73954;SDS011;62306;52.516;13.290;2023-03-21T00:48:27;22.85;;;15.93;;
73954;SDS011;62306;52.516;13.290;2023-03-21T00:50:56;22.77;;;15.82;;
73954;SDS011;62306;52.516;13.290;2023-03-21T00:53:24;25.52;;;14.95;;
73954;SDS011;62306;52.516;13.290;2023-03-21T00:55:51;27.38;;;16.65;;
73954;SDS011;62306;52.516;13.290;2023-03-21T00:58:18;23.38;;;16.02;;
73954;SDS011;62306;52.516;13.290;2023-03-21T01:00:45;23.50;;;15.95;;
73954;SDS011;62306;52.516;13.290;2023-03-21T01:03:13;27.55;;;16.10;;
73954;SDS011;62306;52.516;13.290;2023-03-21T01:05:41;27.73;;;16.52;;
73954;SDS011;62306;52.516;13.290;2023-03-21T01:11:01;25.83;;;16.73;;
73954;SDS011;62306;52.516;13.290;2023-03-21T01:13:29;24.55;;;17.88;;
73954;SDS011;62306;52.516;13.290;2023-03-21T01:15:56;23.00;;;16.73;;
73954;SDS011;62306;52.516;13.290;2023-03-21T01:18:24;27.85;;;16.27;;
73954;SDS011;62306;52.516;13.290;2023-03-21T01:20:53;26.60;;;17.08;;
73954;SDS011;62306;52.516;13.290;2023-03-21T01:23:22;25.60;;;17.58;;
73954;SDS011;62306;52.516;13.290;2023-03-21T01:25:52;24.50;;;17.42;;
73954;SDS011;62306;52.516;13.290;2023-03-21T01:28:20;26.13;;;18.50;;
73954;SDS011;62306;52.516;13.290;2023-03-21T01:30:48;26.13;;;16.75;;
73954;SDS011;62306;52.516;13.290;2023-03-21T01:33:17;24.55;;;18.42;;
73954;SDS011;62306;52.516;13.290;2023-03-21T01:35:44;25.02;;;18.10;;
73954;SDS011;62306;52.516;13.290;2023-03-21T01:38:11;31.70;;;19.83;;
73954;SDS011;62306;52.516;13.290;2023-03-21T01:40:39;27.25;;;19.25;;
73954;SDS011;62306;52.516;13.290;2023-03-21T01:43:14;27.10;;;20.50;;
73954;SDS011;62306;52.516;13.290;2023-03-21T01:48:53;29.27;;;20.75;;
73954;SDS011;62306;52.516;13.290;2023-03-21T01:51:24;32.60;;;22.08;;
73954;SDS011;62306;52.516;13.290;2023-03-21T01:53:53;33.92;;;21.73;;
73954;SDS011;62306;52.516;13.290;2023-03-21T01:56:22;30.35;;;21.92;;
73954;SDS011;62306;52.516;13.290;2023-03-21T01:58:54;32.75;;;23.25;;
73954;SDS011;62306;52.516;13.290;2023-03-21T02:01:27;35.20;;;23.58;;
73954;SDS011;62306;52.516;13.290;2023-03-21T02:03:55;34.28;;;22.67;;
73954;SDS011;62306;52.516;13.290;2023-03-21T02:06:31;33.90;;;23.42;;
73954;SDS011;62306;52.516;13.290;2023-03-21T02:09:03;37.92;;;24.45;;
73954;SDS011;62306;52.516;13.290;2023-03-21T02:11:34;35.67;;;24.15;;
73954;SDS011;62306;52.516;13.290;2023-03-21T02:14:04;36.65;;;25.50;;
73954;SDS011;62306;52.516;13.290;2023-03-21T02:16:38;40.75;;;26.77;;
73954;SDS011;62306;52.516;13.290;2023-03-21T02:19:20;36.92;;;25.95;;
73954;SDS011;62306;52.516;13.290;2023-03-21T02:22:12;46.30;;;26.90;;
73954;SDS011;62306;52.516;13.290;2023-03-21T02:28:18;39.95;;;26.80;;
73954;SDS011;62306;52.516;13.290;2023-03-21T02:37:10;43.88;;;27.00;;
73954;SDS011;62306;52.516;13.290;2023-03-21T02:39:49;44.78;;;27.27;;
73954;SDS011;62306;52.516;13.290;2023-03-21T02:42:26;41.17;;;27.27;;
73954;SDS011;62306;52.516;13.290;2023-03-21T02:47:27;43.72;;;26.88;;
73954;SDS011;62306;52.516;13.290;2023-03-21T02:50:01;40.72;;;27.08;;
73954;SDS011;62306;52.516;13.290;2023-03-21T02:52:34;40.20;;;26.85;;
73954;SDS011;62306;52.516;13.290;2023-03-21T02:55:03;44.85;;;26.95;;
73954;SDS011;62306;52.516;13.290;2023-03-21T02:57:37;41.22;;;27.23;;
73954;SDS011;62306;52.516;13.290;2023-03-21T03:00:07;45.63;;;27.60;;
73954;SDS011;62306;52.516;13.290;2023-03-21T03:02:37;47.00;;;27.63;;
73954;SDS011;62306;52.516;13.290;2023-03-21T03:05:11;45.33;;;29.02;;
73954;SDS011;62306;52.516;13.290;2023-03-21T03:07:42;41.28;;;27.00;;
73954;SDS011;62306;52.516;13.290;2023-03-21T03:10:26;47.28;;;28.67;;
73954;SDS011;62306;52.516;13.290;2023-03-21T03:13:10;45.75;;;28.25;;
73954;SDS011;62306;52.516;13.290;2023-03-21T03:15:49;45.53;;;28.73;;
73954;SDS011;62306;52.516;13.290;2023-03-21T03:18:27;43.10;;;27.58;;
73954;SDS011;62306;52.516;13.290;2023-03-21T03:21:04;53.65;;;27.83;;
73954;SDS011;62306;52.516;13.290;2023-03-21T03:23:41;44.08;;;28.00;;
73954;SDS011;62306;52.516;13.290;2023-03-21T03:26:11;48.42;;;27.70;;
73954;SDS011;62306;52.516;13.290;2023-03-21T03:28:43;46.03;;;27.35;;
73954;SDS011;62306;52.516;13.290;2023-03-21T03:31:13;47.63;;;28.08;;
73954;SDS011;62306;52.516;13.290;2023-03-21T03:33:47;51.13;;;28.23;;
73954;SDS011;62306;52.516;13.290;2023-03-21T03:36:16;47.20;;;28.42;;
73954;SDS011;62306;52.516;13.290;2023-03-21T03:38:47;44.45;;;28.02;;
73954;SDS011;62306;52.516;13.290;2023-03-21T03:41:16;49.08;;;27.75;;
73954;SDS011;62306;52.516;13.290;2023-03-21T03:43:47;45.63;;;27.05;;
73954;SDS011;62306;52.516;13.290;2023-03-21T03:46:18;47.88;;;27.90;;
73954;SDS011;62306;52.516;13.290;2023-03-21T03:48:51;55.30;;;27.80;;
73954;SDS011;62306;52.516;13.290;2023-03-21T03:51:21;43.42;;;26.85;;
73954;SDS011;62306;52.516;13.290;2023-03-21T03:53:53;50.67;;;27.63;;
73954;SDS011;62306;52.516;13.290;2023-03-21T03:56:25;44.70;;;26.95;;
73954;SDS011;62306;52.516;13.290;2023-03-21T03:58:52;46.88;;;27.30;;
73954;SDS011;62306;52.516;13.290;2023-03-21T04:01:21;46.58;;;25.85;;
73954;SDS011;62306;52.516;13.290;2023-03-21T04:03:48;51.67;;;28.02;;
73954;SDS011;62306;52.516;13.290;2023-03-21T04:06:15;47.58;;;26.10;;
73954;SDS011;62306;52.516;13.290;2023-03-21T04:08:43;46.70;;;26.80;;
73954;SDS011;62306;52.516;13.290;2023-03-21T04:11:11;47.30;;;27.50;;
73954;SDS011;62306;52.516;13.290;2023-03-21T04:13:39;42.25;;;27.45;;
73954;SDS011;62306;52.516;13.290;2023-03-21T04:16:06;46.15;;;27.38;;
73954;SDS011;62306;52.516;13.290;2023-03-21T04:18:35;46.45;;;27.88;;
73954;SDS011;62306;52.516;13.290;2023-03-21T04:21:06;46.60;;;27.77;;
73954;SDS011;62306;52.516;13.290;2023-03-21T04:23:34;49.28;;;29.92;;
73954;SDS011;62306;52.516;13.290;2023-03-21T04:26:02;72.82;;;39.05;;
73954;SDS011;62306;52.516;13.290;2023-03-21T04:28:31;51.08;;;28.73;;
73954;SDS011;62306;52.516;13.290;2023-03-21T04:31:00;46.92;;;26.35;;
73954;SDS011;62306;52.516;13.290;2023-03-21T04:33:28;46.70;;;26.45;;
73954;SDS011;62306;52.516;13.290;2023-03-21T04:35:54;42.65;;;25.60;;
73954;SDS011;62306;52.516;13.290;2023-03-21T04:38:23;50.42;;;27.63;;
73954;SDS011;62306;52.516;13.290;2023-03-21T04:40:54;47.45;;;25.00;;
73954;SDS011;62306;52.516;13.290;2023-03-21T04:43:21;44.42;;;26.58;;
73954;SDS011;62306;52.516;13.290;2023-03-21T04:45:50;48.85;;;25.35;;
73954;SDS011;62306;52.516;13.290;2023-03-21T04:48:17;46.88;;;25.50;;
73954;SDS011;62306;52.516;13.290;2023-03-21T04:50:44;40.53;;;25.17;;
73954;SDS011;62306;52.516;13.290;2023-03-21T04:53:11;43.05;;;24.67;;
73954;SDS011;62306;52.516;13.290;2023-03-21T04:55:38;41.28;;;24.77;;
73954;SDS011;62306;52.516;13.290;2023-03-21T04:58:05;47.53;;;25.85;;
73954;SDS011;62306;52.516;13.290;2023-03-21T05:00:32;46.35;;;26.88;;
73954;SDS011;62306;52.516;13.290;2023-03-21T05:03:03;45.90;;;24.70;;
73954;SDS011;62306;52.516;13.290;2023-03-21T05:05:33;47.13;;;24.65;;
73954;SDS011;62306;52.516;13.290;2023-03-21T05:08:00;42.92;;;25.00;;
73954;SDS011;62306;52.516;13.290;2023-03-21T05:10:27;46.30;;;25.52;;
73954;SDS011;62306;52.516;13.290;2023-03-21T05:12:54;49.75;;;26.15;;
73954;SDS011;62306;52.516;13.290;2023-03-21T05:15:21;43.00;;;25.90;;
73954;SDS011;62306;52.516;13.290;2023-03-21T05:17:48;47.60;;;25.85;;
73954;SDS011;62306;52.516;13.290;2023-03-21T05:20:16;45.15;;;26.27;;
73954;SDS011;62306;52.516;13.290;2023-03-21T05:22:43;47.53;;;26.67;;
73954;SDS011;62306;52.516;13.290;2023-03-21T05:25:16;43.47;;;24.65;;
73954;SDS011;62306;52.516;13.290;2023-03-21T05:27:58;40.20;;;25.07;;
73954;SDS011;62306;52.516;13.290;2023-03-21T05:30:26;53.67;;;27.00;;
73954;SDS011;62306;52.516;13.290;2023-03-21T05:32:54;48.95;;;27.00;;
73954;SDS011;62306;52.516;13.290;2023-03-21T05:35:22;122.55;;;71.13;;
73954;SDS011;62306;52.516;13.290;2023-03-21T05:37:49;62.50;;;33.65;;
73954;SDS011;62306;52.516;13.290;2023-03-21T05:40:16;56.28;;;27.35;;
73954;SDS011;62306;52.516;13.290;2023-03-21T05:42:44;47.53;;;26.98;;
73954;SDS011;62306;52.516;13.290;2023-03-21T05:45:11;45.05;;;26.40;;
73954;SDS011;62306;52.516;13.290;2023-03-21T05:47:38;46.25;;;26.20;;
73954;SDS011;62306;52.516;13.290;2023-03-21T05:50:05;46.38;;;26.85;;
73954;SDS011;62306;52.516;13.290;2023-03-21T05:52:36;51.35;;;27.50;;
73954;SDS011;62306;52.516;13.290;2023-03-21T05:55:03;50.78;;;26.35;;
73954;SDS011;62306;52.516;13.290;2023-03-21T05:57:31;49.03;;;26.55;;
73954;SDS011;62306;52.516;13.290;2023-03-21T06:00:03;48.25;;;25.95;;
73954;SDS011;62306;52.516;13.290;2023-03-21T06:02:31;50.80;;;28.05;;
73954;SDS011;62306;52.516;13.290;2023-03-21T06:04:58;52.63;;;28.13;;
73954;SDS011;62306;52.516;13.290;2023-03-21T06:07:25;50.72;;;27.75;;
73954;SDS011;62306;52.516;13.290;2023-03-21T06:09:53;45.47;;;26.45;;
73954;SDS011;62306;52.516;13.290;2023-03-21T06:12:20;52.67;;;27.33;;
73954;SDS011;62306;52.516;13.290;2023-03-21T06:14:47;51.17;;;26.88;;
73954;SDS011;62306;52.516;13.290;2023-03-21T06:17:14;52.10;;;28.20;;
73954;SDS011;62306;52.516;13.290;2023-03-21T06:19:41;46.47;;;26.13;;
73954;SDS011;62306;52.516;13.290;2023-03-21T06:22:08;50.97;;;26.98;;
73954;SDS011;62306;52.516;13.290;2023-03-21T06:24:35;53.33;;;27.83;;
73954;SDS011;62306;52.516;13.290;2023-03-21T06:27:03;53.50;;;28.30;;
73954;SDS011;62306;52.516;13.290;2023-03-21T06:29:30;46.50;;;25.80;;
73954;SDS011;62306;52.516;13.290;2023-03-21T06:31:57;47.60;;;27.45;;
73954;SDS011;62306;52.516;13.290;2023-03-21T06:34:24;51.20;;;27.25;;
73954;SDS011;62306;52.516;13.290;2023-03-21T06:36:51;52.95;;;28.63;;
73954;SDS011;62306;52.516;13.290;2023-03-21T06:39:18;45.28;;;26.55;;
73954;SDS011;62306;52.516;13.290;2023-03-21T06:41:45;52.90;;;27.02;;
73954;SDS011;62306;52.516;13.290;2023-03-21T06:44:14;95.53;;;53.97;;
73954;SDS011;62306;52.516;13.290;2023-03-21T06:46:41;104.28;;;60.78;;
73954;SDS011;62306;52.516;13.290;2023-03-21T06:49:08;55.75;;;28.50;;
73954;SDS011;62306;52.516;13.290;2023-03-21T06:51:35;49.42;;;27.10;;
73954;SDS011;62306;52.516;13.290;2023-03-21T06:54:02;47.63;;;26.02;;
73954;SDS011;62306;52.516;13.290;2023-03-21T06:56:29;47.78;;;27.15;;
73954;SDS011;62306;52.516;13.290;2023-03-21T06:58:56;55.30;;;29.23;;
73954;SDS011;62306;52.516;13.290;2023-03-21T07:01:24;44.38;;;26.00;;
73954;SDS011;62306;52.516;13.290;2023-03-21T07:03:51;51.38;;;27.23;;
73954;SDS011;62306;52.516;13.290;2023-03-21T07:06:20;59.20;;;34.42;;
73954;SDS011;62306;52.516;13.290;2023-03-21T07:08:50;69.13;;;40.03;;
73954;SDS011;62306;52.516;13.290;2023-03-21T07:11:18;52.13;;;29.25;;
73954;SDS011;62306;52.516;13.290;2023-03-21T07:13:45;50.60;;;25.17;;
73954;SDS011;62306;52.516;13.290;2023-03-21T07:16:13;52.05;;;27.95;;
73954;SDS011;62306;52.516;13.290;2023-03-21T07:18:41;49.72;;;28.63;;
73954;SDS011;62306;52.516;13.290;2023-03-21T07:21:09;53.47;;;27.80;;
73954;SDS011;62306;52.516;13.290;2023-03-21T07:23:36;53.03;;;28.42;;
73954;SDS011;62306;52.516;13.290;2023-03-21T07:26:03;60.30;;;27.98;;
73954;SDS011;62306;52.516;13.290;2023-03-21T07:28:31;77.13;;;44.63;;
73954;SDS011;62306;52.516;13.290;2023-03-21T07:30:59;53.25;;;31.83;;
73954;SDS011;62306;52.516;13.290;2023-03-21T07:33:28;51.90;;;28.73;;
73954;SDS011;62306;52.516;13.290;2023-03-21T07:35:58;52.50;;;29.15;;
73954;SDS011;62306;52.516;13.290;2023-03-21T07:38:26;50.83;;;28.83;;
73954;SDS011;62306;52.516;13.290;2023-03-21T07:40:55;52.92;;;28.58;;
73954;SDS011;62306;52.516;13.290;2023-03-21T07:43:24;46.60;;;27.15;;
73954;SDS011;62306;52.516;13.290;2023-03-21T07:45:55;50.72;;;28.90;;
73954;SDS011;62306;52.516;13.290;2023-03-21T07:48:23;50.05;;;27.08;;
73954;SDS011;62306;52.516;13.290;2023-03-21T07:50:50;56.35;;;28.20;;
73954;SDS011;62306;52.516;13.290;2023-03-21T07:53:19;54.45;;;28.15;;
73954;SDS011;62306;52.516;13.290;2023-03-21T07:55:48;50.70;;;28.80;;
73954;SDS011;62306;52.516;13.290;2023-03-21T07:58:15;55.10;;;27.35;;
73954;SDS011;62306;52.516;13.290;2023-03-21T08:00:42;53.83;;;30.95;;
73954;SDS011;62306;52.516;13.290;2023-03-21T08:03:09;51.63;;;27.55;;
73954;SDS011;62306;52.516;13.290;2023-03-21T08:05:37;49.38;;;27.08;;
73954;SDS011;62306;52.516;13.290;2023-03-21T08:08:05;48.50;;;26.73;;
73954;SDS011;62306;52.516;13.290;2023-03-21T08:10:34;49.67;;;27.55;;
73954;SDS011;62306;52.516;13.290;2023-03-21T08:13:01;46.70;;;26.55;;
73954;SDS011;62306;52.516;13.290;2023-03-21T08:15:28;49.78;;;26.90;;
73954;SDS011;62306;52.516;13.290;2023-03-21T08:17:57;48.72;;;27.42;;
73954;SDS011;62306;52.516;13.290;2023-03-21T08:20:24;51.50;;;26.50;;
73954;SDS011;62306;52.516;13.290;2023-03-21T08:22:51;46.20;;;26.27;;
73954;SDS011;62306;52.516;13.290;2023-03-21T08:25:19;47.58;;;25.85;;
73954;SDS011;62306;52.516;13.290;2023-03-21T08:27:48;40.53;;;25.35;;
73954;SDS011;62306;52.516;13.290;2023-03-21T08:30:17;41.58;;;25.02;;
73954;SDS011;62306;52.516;13.290;2023-03-21T08:32:45;50.50;;;27.38;;
73954;SDS011;62306;52.516;13.290;2023-03-21T08:35:13;44.85;;;25.48;;
73954;SDS011;62306;52.516;13.290;2023-03-21T08:37:42;50.72;;;26.73;;
73954;SDS011;62306;52.516;13.290;2023-03-21T08:40:10;49.53;;;25.35;;
73954;SDS011;62306;52.516;13.290;2023-03-21T08:42:39;50.95;;;27.48;;
73954;SDS011;62306;52.516;13.290;2023-03-21T08:45:09;44.72;;;23.77;;
73954;SDS011;62306;52.516;13.290;2023-03-21T08:47:37;43.03;;;24.65;;
73954;SDS011;62306;52.516;13.290;2023-03-21T08:50:05;47.92;;;25.58;;
73954;SDS011;62306;52.516;13.290;2023-03-21T08:52:34;50.05;;;26.48;;
73954;SDS011;62306;52.516;13.290;2023-03-21T08:55:01;44.42;;;24.85;;
73954;SDS011;62306;52.516;13.290;2023-03-21T08:57:28;44.13;;;26.05;;
73954;SDS011;62306;52.516;13.290;2023-03-21T08:59:55;46.13;;;25.23;;
73954;SDS011;62306;52.516;13.290;2023-03-21T09:02:24;40.88;;;24.15;;
73954;SDS011;62306;52.516;13.290;2023-03-21T09:04:51;44.35;;;24.85;;
73954;SDS011;62306;52.516;13.290;2023-03-21T09:07:18;43.00;;;24.55;;
73954;SDS011;62306;52.516;13.290;2023-03-21T09:09:49;44.10;;;24.30;;
73954;SDS011;62306;52.516;13.290;2023-03-21T09:12:17;47.65;;;26.17;;
73954;SDS011;62306;52.516;13.290;2023-03-21T09:14:44;46.75;;;26.05;;
73954;SDS011;62306;52.516;13.290;2023-03-21T09:17:11;43.88;;;23.88;;
73954;SDS011;62306;52.516;13.290;2023-03-21T09:19:40;45.47;;;24.25;;
73954;SDS011;62306;52.516;13.290;2023-03-21T09:22:07;43.75;;;24.35;;
73954;SDS011;62306;52.516;13.290;2023-03-21T09:24:38;42.88;;;23.67;;
73954;SDS011;62306;52.516;13.290;2023-03-21T09:27:05;46.70;;;26.23;;
73954;SDS011;62306;52.516;13.290;2023-03-21T09:29:32;42.13;;;25.38;;
73954;SDS011;62306;52.516;13.290;2023-03-21T09:31:59;40.70;;;24.55;;
73954;SDS011;62306;52.516;13.290;2023-03-21T09:34:28;45.63;;;25.05;;
73954;SDS011;62306;52.516;13.290;2023-03-21T09:36:56;40.83;;;24.52;;
73954;SDS011;62306;52.516;13.290;2023-03-21T09:39:24;39.55;;;23.20;;
73954;SDS011;62306;52.516;13.290;2023-03-21T09:41:57;42.33;;;25.13;;
73954;SDS011;62306;52.516;13.290;2023-03-21T09:44:36;43.85;;;24.83;;
73954;SDS011;62306;52.516;13.290;2023-03-21T09:47:14;44.05;;;25.65;;
73954;SDS011;62306;52.516;13.290;2023-03-21T09:49:46;43.40;;;25.10;;
73954;SDS011;62306;52.516;13.290;2023-03-21T09:52:20;46.58;;;27.13;;
73954;SDS011;62306;52.516;13.290;2023-03-21T09:54:51;45.75;;;24.88;;
73954;SDS011;62306;52.516;13.290;2023-03-21T09:57:22;41.97;;;23.75;;
73954;SDS011;62306;52.516;13.290;2023-03-21T09:59:55;40.45;;;24.48;;
73954;SDS011;62306;52.516;13.290;2023-03-21T10:02:32;42.88;;;25.20;;
73954;SDS011;62306;52.516;13.290;2023-03-21T10:05:03;44.20;;;24.08;;
73954;SDS011;62306;52.516;13.290;2023-03-21T10:07:39;46.13;;;24.90;;
73954;SDS011;62306;52.516;13.290;2023-03-21T10:10:14;43.38;;;23.92;;
73954;SDS011;62306;52.516;13.290;2023-03-21T10:12:43;43.83;;;23.02;;
73954;SDS011;62306;52.516;13.290;2023-03-21T10:15:14;40.97;;;24.05;;
73954;SDS011;62306;52.516;13.290;2023-03-21T10:17:46;44.70;;;22.92;;
73954;SDS011;62306;52.516;13.290;2023-03-21T10:20:18;41.65;;;23.55;;
73954;SDS011;62306;52.516;13.290;2023-03-21T10:22:48;36.95;;;21.60;;
73954;SDS011;62306;52.516;13.290;2023-03-21T10:25:18;45.40;;;22.90;;
73954;SDS011;62306;52.516;13.290;2023-03-21T10:27:47;42.63;;;24.60;;
73954;SDS011;62306;52.516;13.290;2023-03-21T10:30:23;40.40;;;24.40;;
73954;SDS011;62306;52.516;13.290;2023-03-21T10:32:55;36.78;;;21.42;;
73954;SDS011;62306;52.516;13.290;2023-03-21T10:35:26;38.38;;;21.95;;
73954;SDS011;62306;52.516;13.290;2023-03-21T10:37:57;48.13;;;22.00;;
73954;SDS011;62306;52.516;13.290;2023-03-21T10:40:24;41.03;;;21.98;;
73954;SDS011;62306;52.516;13.290;2023-03-21T10:42:53;37.35;;;22.15;;
73954;SDS011;62306;52.516;13.290;2023-03-21T10:45:20;35.70;;;22.35;;
73954;SDS011;62306;52.516;13.290;2023-03-21T10:47:49;36.25;;;22.02;;
73954;SDS011;62306;52.516;13.290;2023-03-21T10:50:18;39.95;;;21.70;;
73954;SDS011;62306;52.516;13.290;2023-03-21T10:52:50;36.28;;;21.65;;
73954;SDS011;62306;52.516;13.290;2023-03-21T10:55:26;32.55;;;20.75;;
73954;SDS011;62306;52.516;13.290;2023-03-21T10:57:55;34.08;;;21.70;;
73954;SDS011;62306;52.516;13.290;2023-03-21T11:00:26;35.28;;;21.17;;
73954;SDS011;62306;52.516;13.290;2023-03-21T11:02:55;35.25;;;20.15;;
73954;SDS011;62306;52.516;13.290;2023-03-21T11:05:24;40.05;;;21.25;;
73954;SDS011;62306;52.516;13.290;2023-03-21T11:07:59;35.55;;;22.35;;
73954;SDS011;62306;52.516;13.290;2023-03-21T11:10:31;40.97;;;22.98;;
73954;SDS011;62306;52.516;13.290;2023-03-21T11:13:02;32.63;;;20.30;;
73954;SDS011;62306;52.516;13.290;2023-03-21T11:15:32;34.50;;;21.13;;
73954;SDS011;62306;52.516;13.290;2023-03-21T11:18:12;31.88;;;18.42;;
73954;SDS011;62306;52.516;13.290;2023-03-21T11:20:41;26.30;;;16.33;;
73954;SDS011;62306;52.516;13.290;2023-03-21T11:23:14;30.65;;;17.67;;
73954;SDS011;62306;52.516;13.290;2023-03-21T11:25:43;31.10;;;16.90;;
73954;SDS011;62306;52.516;13.290;2023-03-21T11:28:15;30.23;;;18.58;;
73954;SDS011;62306;52.516;13.290;2023-03-21T11:30:50;32.58;;;20.00;;
73954;SDS011;62306;52.516;13.290;2023-03-21T11:33:19;30.40;;;16.77;;
73954;SDS011;62306;52.516;13.290;2023-03-21T11:35:58;31.90;;;17.75;;
73954;SDS011;62306;52.516;13.290;2023-03-21T11:38:28;29.98;;;17.08;;
73954;SDS011;62306;52.516;13.290;2023-03-21T11:40:58;25.40;;;15.63;;
73954;SDS011;62306;52.516;13.290;2023-03-21T11:43:28;26.10;;;16.80;;
73954;SDS011;62306;52.516;13.290;2023-03-21T11:45:57;28.35;;;16.27;;
73954;SDS011;62306;52.516;13.290;2023-03-21T11:48:25;28.33;;;17.05;;
73954;SDS011;62306;52.516;13.290;2023-03-21T11:50:55;30.85;;;16.42;;
73954;SDS011;62306;52.516;13.290;2023-03-21T11:53:33;27.92;;;16.50;;
73954;SDS011;62306;52.516;13.290;2023-03-21T11:59:00;22.95;;;14.63;;
73954;SDS011;62306;52.516;13.290;2023-03-21T12:01:44;27.35;;;16.42;;
73954;SDS011;62306;52.516;13.290;2023-03-21T12:04:26;28.25;;;16.63;;
73954;SDS011;62306;52.516;13.290;2023-03-21T12:07:05;25.85;;;15.27;;
73954;SDS011;62306;52.516;13.290;2023-03-21T12:09:42;26.27;;;15.38;;
73954;SDS011;62306;52.516;13.290;2023-03-21T12:12:18;24.63;;;15.50;;
73954;SDS011;62306;52.516;13.290;2023-03-21T12:14:57;30.27;;;15.90;;
73954;SDS011;62306;52.516;13.290;2023-03-21T12:17:31;28.27;;;14.60;;
73954;SDS011;62306;52.516;13.290;2023-03-21T12:20:12;27.00;;;16.23;;
73954;SDS011;62306;52.516;13.290;2023-03-21T12:23:05;22.90;;;14.52;;
73954;SDS011;62306;52.516;13.290;2023-03-21T12:25:41;19.45;;;12.65;;
73954;SDS011;62306;52.516;13.290;2023-03-21T12:28:17;18.35;;;12.43;;
73954;SDS011;62306;52.516;13.290;2023-03-21T12:30:55;21.05;;;13.65;;
73954;SDS011;62306;52.516;13.290;2023-03-21T12:33:34;21.20;;;13.38;;
73954;SDS011;62306;52.516;13.290;2023-03-21T12:36:19;18.85;;;11.88;;
73954;SDS011;62306;52.516;13.290;2023-03-21T12:39:15;20.70;;;11.95;;
73954;SDS011;62306;52.516;13.290;2023-03-21T12:41:50;19.30;;;11.50;;
73954;SDS011;62306;52.516;13.290;2023-03-21T12:44:26;21.70;;;13.25;;
73954;SDS011;62306;52.516;13.290;2023-03-21T12:46:57;18.27;;;12.40;;
73954;SDS011;62306;52.516;13.290;2023-03-21T12:49:27;23.73;;;14.13;;
73954;SDS011;62306;52.516;13.290;2023-03-21T12:51:58;17.67;;;11.52;;
73954;SDS011;62306;52.516;13.290;2023-03-21T12:54:30;21.95;;;13.25;;
73954;SDS011;62306;52.516;13.290;2023-03-21T12:57:03;25.25;;;12.25;;
73954;SDS011;62306;52.516;13.290;2023-03-21T12:59:36;19.95;;;12.40;;
73954;SDS011;62306;52.516;13.290;2023-03-21T13:02:17;21.73;;;13.60;;
73954;SDS011;62306;52.516;13.290;2023-03-21T13:04:51;21.70;;;12.43;;
73954;SDS011;62306;52.516;13.290;2023-03-21T13:07:24;17.40;;;11.68;;
73954;SDS011;62306;52.516;13.290;2023-03-21T13:09:54;16.73;;;11.63;;
73954;SDS011;62306;52.516;13.290;2023-03-21T13:12:31;20.45;;;12.65;;
73954;SDS011;62306;52.516;13.290;2023-03-21T13:15:12;20.80;;;11.00;;
73954;SDS011;62306;52.516;13.290;2023-03-21T13:17:56;21.42;;;11.18;;
73954;SDS011;62306;52.516;13.290;2023-03-21T13:20:31;20.83;;;12.68;;
73954;SDS011;62306;52.516;13.290;2023-03-21T13:23:05;20.55;;;11.52;;
73954;SDS011;62306;52.516;13.290;2023-03-21T13:25:34;20.95;;;10.98;;
73954;SDS011;62306;52.516;13.290;2023-03-21T13:28:12;20.50;;;12.07;;
73954;SDS011;62306;52.516;13.290;2023-03-21T13:30:46;15.70;;;11.05;;
73954;SDS011;62306;52.516;13.290;2023-03-21T13:33:14;28.98;;;13.23;;
73954;SDS011;62306;52.516;13.290;2023-03-21T13:35:45;22.35;;;14.05;;
73954;SDS011;62306;52.516;13.290;2023-03-21T13:38:25;19.05;;;12.77;;
73954;SDS011;62306;52.516;13.290;2023-03-21T13:40:56;15.98;;;11.45;;
73954;SDS011;62306;52.516;13.290;2023-03-21T13:43:31;23.00;;;14.73;;
73954;SDS011;62306;52.516;13.290;2023-03-21T13:46:06;26.05;;;14.38;;
73954;SDS011;62306;52.516;13.290;2023-03-21T13:48:41;22.27;;;12.90;;
73954;SDS011;62306;52.516;13.290;2023-03-21T13:51:10;19.15;;;12.27;;
73954;SDS011;62306;52.516;13.290;2023-03-21T13:53:37;19.77;;;11.43;;
73954;SDS011;62306;52.516;13.290;2023-03-21T13:58:52;20.05;;;11.43;;
73954;SDS011;62306;52.516;13.290;2023-03-21T14:01:29;21.80;;;12.23;;
73954;SDS011;62306;52.516;13.290;2023-03-21T14:03:59;18.38;;;11.23;;
73954;SDS011;62306;52.516;13.290;2023-03-21T14:06:40;21.92;;;13.55;;
73954;SDS011;62306;52.516;13.290;2023-03-21T14:09:11;18.27;;;11.73;;
73954;SDS011;62306;52.516;13.290;2023-03-21T14:11:44;21.38;;;11.48;;
73954;SDS011;62306;52.516;13.290;2023-03-21T14:14:12;18.40;;;10.43;;
73954;SDS011;62306;52.516;13.290;2023-03-21T14:16:41;18.50;;;10.23;;
73954;SDS011;62306;52.516;13.290;2023-03-21T14:19:10;16.17;;;11.43;;
73954;SDS011;62306;52.516;13.290;2023-03-21T14:21:44;17.55;;;11.68;;
73954;SDS011;62306;52.516;13.290;2023-03-21T14:24:12;18.42;;;10.05;;
73954;SDS011;62306;52.516;13.290;2023-03-21T14:26:40;19.17;;;12.65;;
73954;SDS011;62306;52.516;13.290;2023-03-21T14:29:13;14.57;;;10.52;;
73954;SDS011;62306;52.516;13.290;2023-03-21T14:31:47;17.38;;;11.00;;
73954;SDS011;62306;52.516;13.290;2023-03-21T14:34:14;15.07;;;9.85;;
73954;SDS011;62306;52.516;13.290;2023-03-21T14:36:43;15.52;;;9.50;;
73954;SDS011;62306;52.516;13.290;2023-03-21T14:39:14;13.27;;;9.45;;
73954;SDS011;62306;52.516;13.290;2023-03-21T14:41:44;15.88;;;9.98;;
73954;SDS011;62306;52.516;13.290;2023-03-21T14:44:14;12.85;;;9.65;;
73954;SDS011;62306;52.516;13.290;2023-03-21T14:46:47;16.55;;;10.73;;
73954;SDS011;62306;52.516;13.290;2023-03-21T14:49:23;14.52;;;10.25;;
73954;SDS011;62306;52.516;13.290;2023-03-21T14:51:52;18.80;;;11.65;;